createdAt,value
2022-12-24T00:00:37.872Z,1.15
2022-12-24T00:03:04.548Z,0.52
2022-12-24T00:05:31.217Z,1.40
2022-12-24T00:07:58.070Z,0.82
2022-12-24T00:10:24.681Z,1.85
2022-12-24T00:12:51.279Z,1.13
2022-12-24T00:15:17.976Z,1.02
2022-12-24T00:17:44.518Z,1.63
2022-12-24T00:20:11.211Z,0.73
2022-12-24T00:22:38.141Z,2.95
2022-12-24T00:25:05.028Z,1.10
2022-12-24T00:27:31.595Z,1.83
2022-12-24T00:29:58.135Z,1.52
2022-12-24T00:32:24.708Z,0.95
2022-12-24T00:34:51.233Z,1.52
2022-12-24T00:37:17.823Z,0.65
2022-12-24T00:39:44.340Z,1.00
2022-12-24T00:42:11.140Z,1.42
2022-12-24T00:44:37.728Z,1.65
2022-12-24T00:47:08.333Z,0.60
2022-12-24T00:49:38.524Z,0.98
2022-12-24T00:52:05.544Z,1.73
2022-12-24T00:54:32.122Z,2.30
2022-12-24T00:56:58.748Z,1.25
2022-12-24T00:59:25.500Z,2.85
2022-12-24T01:01:52.198Z,1.67
2022-12-24T01:04:37.674Z,2.05
2022-12-24T01:07:04.253Z,1.55
2022-12-24T01:09:32.082Z,1.70
2022-12-24T01:11:58.642Z,2.05
2022-12-24T01:14:25.197Z,1.33
2022-12-24T01:16:51.862Z,1.67
2022-12-24T01:19:18.439Z,1.83
2022-12-24T01:21:45.031Z,2.35
2022-12-24T01:24:15.903Z,1.60
2022-12-24T01:26:43.416Z,1.50
2022-12-24T01:29:10.029Z,2.90
2022-12-24T01:31:36.717Z,2.60
2022-12-24T01:34:03.593Z,1.73
2022-12-24T01:36:30.173Z,3.47
2022-12-24T01:38:56.803Z,2.97
2022-12-24T01:41:42.440Z,1.98
2022-12-24T01:44:35.753Z,2.17
2022-12-24T01:47:25.657Z,2.08
2022-12-24T01:49:56.876Z,2.00
2022-12-24T01:52:31.008Z,1.73
2022-12-24T01:55:05.599Z,1.42
2022-12-24T01:57:37.112Z,2.08
2022-12-24T02:00:08.947Z,3.72
2022-12-24T02:02:40.223Z,1.55
2022-12-24T02:05:20.577Z,2.38
2022-12-24T02:07:48.774Z,1.83
2022-12-24T02:10:15.890Z,1.13
2022-12-24T02:12:43.803Z,2.50
2022-12-24T02:15:13.900Z,1.35
2022-12-24T02:17:58.857Z,1.08
2022-12-24T02:20:45.275Z,2.05
2022-12-24T02:23:53.083Z,1.60
2022-12-24T02:26:36.891Z,1.70
2022-12-24T02:29:26.497Z,3.15
2022-12-24T02:32:02.233Z,1.98
2022-12-24T02:34:36.134Z,1.30
2022-12-24T02:37:12.541Z,3.10
2022-12-24T02:39:50.099Z,2.75
2022-12-24T02:42:22.231Z,2.03
2022-12-24T02:44:55.624Z,1.65
2022-12-24T02:47:26.104Z,2.53
2022-12-24T02:49:52.644Z,1.65
2022-12-24T02:52:35.414Z,2.20
2022-12-24T02:55:09.588Z,1.55
2022-12-24T02:57:49.606Z,2.65
2022-12-24T03:00:19.326Z,2.10
2022-12-24T03:03:07.790Z,1.58
2022-12-24T03:06:00.308Z,2.30
2022-12-24T03:08:47.968Z,1.58
2022-12-24T03:11:15.378Z,1.23
2022-12-24T03:13:46.507Z,1.30
2022-12-24T03:16:18.274Z,1.38
2022-12-24T03:18:47.773Z,1.50
2022-12-24T03:21:20.861Z,1.33
2022-12-24T03:23:48.535Z,1.45
2022-12-24T03:26:18.889Z,0.75
2022-12-24T03:28:46.747Z,1.40
2022-12-24T03:31:14.080Z,1.77
2022-12-24T03:33:41.219Z,2.05
2022-12-24T03:36:08.795Z,1.73
2022-12-24T03:38:35.471Z,2.45
2022-12-24T03:41:02.115Z,1.67
2022-12-24T03:43:28.985Z,1.80
2022-12-24T03:45:55.684Z,1.67
2022-12-24T03:48:26.011Z,1.05
2022-12-24T03:50:55.663Z,1.65
2022-12-24T03:53:22.204Z,0.80
2022-12-24T03:55:48.804Z,1.75
2022-12-24T03:58:15.805Z,1.35
2022-12-24T04:00:42.429Z,2.00
2022-12-24T04:03:09.041Z,1.70
2022-12-24T04:05:35.643Z,1.23
2022-12-24T04:08:02.247Z,1.90
2022-12-24T04:10:28.880Z,1.23
2022-12-24T04:12:55.407Z,1.80
2022-12-24T04:15:22.068Z,1.30
2022-12-24T04:17:48.654Z,1.98
2022-12-24T04:20:15.253Z,1.40
2022-12-24T04:22:42.158Z,1.70
2022-12-24T04:25:09.285Z,1.67
2022-12-24T04:27:35.904Z,1.90
2022-12-24T04:30:02.788Z,1.80
2022-12-24T04:32:29.329Z,1.02
2022-12-24T04:34:56.024Z,1.27
2022-12-24T04:37:22.614Z,1.35
2022-12-24T04:39:49.184Z,1.15
2022-12-24T04:42:15.773Z,1.98
2022-12-24T04:44:42.553Z,2.33
2022-12-24T04:47:10.856Z,1.10
2022-12-24T04:49:37.506Z,0.70
2022-12-24T04:52:04.201Z,1.63
2022-12-24T04:54:30.925Z,1.15
2022-12-24T04:56:57.492Z,0.80
2022-12-24T04:59:24.024Z,1.67
2022-12-24T05:01:50.636Z,1.23
2022-12-24T05:04:17.271Z,0.85
2022-12-24T05:06:43.796Z,1.15
2022-12-24T05:09:10.353Z,0.82
2022-12-24T05:11:36.953Z,1.63
2022-12-24T05:14:03.667Z,1.17
2022-12-24T05:16:30.365Z,1.02
2022-12-24T05:18:57.003Z,1.50
2022-12-24T05:21:24.645Z,1.85
2022-12-24T05:24:10.375Z,0.43
2022-12-24T05:26:44.556Z,0.77
2022-12-24T05:29:14.714Z,0.32
2022-12-24T05:31:43.773Z,1.25
2022-12-24T05:34:12.313Z,2.08
2022-12-24T05:36:39.256Z,1.58
2022-12-24T05:39:10.028Z,0.73
2022-12-24T05:41:38.326Z,1.92
2022-12-24T05:44:04.997Z,1.38
2022-12-24T05:46:31.599Z,0.30
2022-12-24T05:48:58.239Z,1.17
2022-12-24T05:51:24.859Z,0.77
2022-12-24T05:53:52.175Z,1.30
2022-12-24T05:56:23.929Z,1.52
2022-12-24T05:58:52.300Z,1.10
2022-12-24T06:01:19.971Z,0.63
2022-12-24T06:03:46.807Z,1.15
2022-12-24T06:06:19.317Z,0.93
2022-12-24T06:08:46.779Z,1.77
2022-12-24T06:11:15.680Z,0.77
2022-12-24T06:13:43.084Z,0.65
2022-12-24T06:16:13.873Z,0.38
2022-12-24T06:18:40.658Z,1.08
2022-12-24T06:21:08.035Z,0.68
2022-12-24T06:23:37.589Z,0.70
2022-12-24T06:26:05.697Z,1.25
2022-12-24T06:28:35.139Z,1.15
2022-12-24T06:31:03.713Z,0.50
2022-12-24T06:33:32.030Z,0.68
2022-12-24T06:35:58.854Z,1.75
2022-12-24T06:38:25.878Z,0.98
2022-12-24T06:40:55.682Z,0.88
2022-12-24T06:43:22.471Z,0.52
2022-12-24T06:45:49.078Z,1.10
2022-12-24T06:48:16.532Z,0.95
2022-12-24T06:50:43.546Z,0.52
2022-12-24T06:53:10.336Z,0.82
2022-12-24T06:55:37.013Z,1.65
2022-12-24T06:58:03.843Z,0.70
2022-12-24T07:00:30.594Z,1.17
2022-12-24T07:02:57.465Z,0.47
2022-12-24T07:05:24.069Z,1.67
2022-12-24T07:07:50.867Z,2.05
2022-12-24T07:10:19.096Z,1.00
2022-12-24T07:12:46.079Z,1.83
2022-12-24T07:15:13.678Z,2.17
2022-12-24T07:17:40.625Z,2.78
2022-12-24T07:20:08.572Z,0.80
2022-12-24T07:22:35.173Z,1.08
2022-12-24T07:25:02.999Z,1.75
2022-12-24T07:27:30.432Z,1.00
2022-12-24T07:29:56.991Z,0.68
2022-12-24T07:32:23.537Z,1.65
2022-12-24T07:34:50.266Z,1.38
2022-12-24T07:37:16.992Z,1.45
2022-12-24T07:39:43.559Z,1.25
2022-12-24T07:42:10.168Z,0.80
2022-12-24T07:44:36.787Z,0.57
2022-12-24T07:47:03.583Z,0.65
2022-12-24T07:49:30.268Z,1.30
2022-12-24T07:51:56.851Z,1.88
2022-12-24T07:54:23.469Z,1.70
2022-12-24T07:56:50.194Z,0.77
2022-12-24T07:59:16.765Z,1.20
2022-12-24T08:01:43.441Z,1.30
2022-12-24T08:04:10.245Z,1.50
2022-12-24T08:06:36.898Z,0.55
2022-12-24T08:09:03.974Z,0.60
2022-12-24T08:11:30.654Z,0.82
2022-12-24T08:13:57.266Z,0.63
2022-12-24T08:16:23.865Z,0.75
2022-12-24T08:18:50.516Z,0.88
2022-12-24T08:21:17.167Z,0.47
2022-12-24T08:23:43.755Z,0.77
2022-12-24T08:26:12.137Z,0.52
2022-12-24T08:28:38.886Z,0.90
2022-12-24T08:31:06.002Z,0.93
2022-12-24T08:33:32.698Z,1.00
2022-12-24T08:36:02.018Z,0.93
2022-12-24T08:38:29.367Z,1.40
2022-12-24T08:40:56.350Z,0.68
2022-12-24T08:43:25.385Z,0.43
2022-12-24T08:45:52.420Z,0.82
2022-12-24T08:48:19.044Z,0.80
2022-12-24T08:50:46.141Z,1.27
2022-12-24T08:53:13.450Z,0.60
2022-12-24T08:55:40.127Z,0.73
2022-12-24T08:58:06.684Z,1.00
2022-12-24T09:00:33.369Z,1.08
2022-12-24T09:03:00.096Z,1.05
2022-12-24T09:05:27.140Z,1.00
2022-12-24T09:07:53.687Z,0.80
2022-12-24T09:10:20.517Z,0.80
2022-12-24T09:12:47.772Z,0.45
2022-12-24T09:15:14.888Z,1.50
2022-12-24T09:17:41.698Z,0.40
2022-12-24T09:20:09.309Z,1.00
2022-12-24T09:22:37.710Z,0.47
2022-12-24T09:25:06.120Z,0.60
2022-12-24T09:27:32.770Z,1.00
2022-12-24T09:29:59.305Z,0.70
2022-12-24T09:32:25.914Z,1.00
2022-12-24T09:34:52.454Z,1.20
2022-12-24T09:37:19.107Z,0.90
2022-12-24T09:39:45.663Z,1.60
2022-12-24T09:42:38.367Z,0.55
2022-12-24T09:45:18.677Z,0.98
2022-12-24T09:47:59.123Z,1.17
2022-12-24T09:50:31.933Z,0.75
2022-12-24T09:53:02.918Z,1.27
2022-12-24T09:55:44.072Z,0.55
2022-12-24T09:58:20.428Z,0.50
2022-12-24T10:00:50.036Z,1.13
2022-12-24T10:03:17.841Z,0.90
2022-12-24T10:06:10.303Z,0.98
2022-12-24T10:09:08.067Z,1.23
2022-12-24T10:11:56.442Z,0.75
2022-12-24T10:14:43.806Z,0.90
2022-12-24T10:17:29.095Z,0.57
2022-12-24T10:20:08.927Z,1.52
2022-12-24T10:23:03.242Z,1.42
2022-12-24T10:25:52.441Z,0.75
2022-12-24T10:28:30.796Z,0.82
2022-12-24T10:31:01.093Z,1.08
2022-12-24T10:33:44.097Z,0.98
2022-12-24T10:36:20.822Z,1.23
2022-12-24T10:38:47.415Z,1.15
2022-12-24T10:41:15.824Z,1.10
2022-12-24T10:43:45.044Z,1.70
2022-12-24T10:46:19.966Z,0.60
2022-12-24T10:49:01.235Z,0.65
2022-12-24T10:51:47.622Z,1.27
2022-12-24T10:54:27.983Z,1.08
2022-12-24T10:57:02.385Z,1.08
2022-12-24T10:59:33.728Z,1.05
2022-12-24T11:02:01.396Z,1.05
2022-12-24T11:04:31.526Z,1.10
2022-12-24T11:07:03.558Z,0.73
2022-12-24T11:09:41.220Z,1.33
2022-12-24T11:12:19.668Z,2.05
2022-12-24T11:14:46.237Z,0.60
2022-12-24T11:17:23.444Z,1.23
2022-12-24T11:19:51.041Z,1.23
2022-12-24T11:22:25.032Z,1.35
2022-12-24T11:25:14.089Z,0.35
2022-12-24T11:27:45.966Z,0.63
2022-12-24T11:30:15.738Z,0.90
2022-12-24T11:32:47.798Z,2.40
2022-12-24T11:35:21.728Z,1.38
2022-12-24T11:38:00.559Z,2.42
2022-12-24T11:40:37.119Z,1.13
2022-12-24T11:43:11.080Z,1.90
2022-12-24T11:45:49.687Z,1.55
2022-12-24T11:48:32.712Z,1.75
2022-12-24T11:51:01.758Z,2.25
2022-12-24T11:53:46.351Z,1.33
2022-12-24T11:56:24.329Z,1.42
2022-12-24T11:58:56.826Z,1.83
2022-12-24T12:01:36.863Z,1.63
2022-12-24T12:04:32.936Z,2.10
2022-12-24T12:07:00.250Z,1.85
2022-12-24T12:09:38.482Z,1.67
2022-12-24T12:12:15.091Z,1.50
2022-12-24T12:14:48.184Z,1.27
2022-12-24T12:17:31.219Z,2.05
2022-12-24T12:20:04.288Z,2.58
2022-12-24T12:22:57.881Z,1.73
2022-12-24T12:25:35.765Z,0.98
2022-12-24T12:28:06.190Z,1.42
2022-12-24T12:30:35.651Z,2.15
2022-12-24T12:33:17.322Z,2.75
2022-12-24T12:35:45.639Z,1.35
2022-12-24T12:38:22.503Z,2.33
2022-12-24T12:41:16.833Z,1.98
2022-12-24T12:43:58.471Z,2.25
2022-12-24T12:47:08.031Z,2.17
2022-12-24T12:49:49.239Z,1.45
2022-12-24T12:52:56.781Z,2.85
2022-12-24T12:55:30.585Z,2.97
2022-12-24T12:58:03.416Z,2.70
2022-12-24T13:00:36.113Z,2.13
2022-12-24T13:03:25.153Z,1.65
2022-12-24T13:06:31.577Z,2.05
2022-12-24T13:09:16.013Z,2.38
2022-12-24T13:12:12.243Z,3.08
2022-12-24T13:14:51.429Z,2.00
2022-12-24T13:17:31.971Z,2.63
2022-12-24T13:20:10.598Z,2.40
2022-12-24T13:22:37.393Z,2.92
2022-12-24T13:25:04.845Z,2.97
2022-12-24T13:27:34.277Z,2.70
2022-12-24T13:30:28.221Z,3.00
2022-12-24T13:32:55.165Z,2.58
2022-12-24T13:35:21.689Z,2.65
2022-12-24T13:37:49.681Z,2.47
2022-12-24T13:40:24.265Z,2.55
2022-12-24T13:43:02.927Z,2.65
2022-12-24T13:45:32.194Z,2.80
2022-12-24T13:48:28.490Z,1.90
2022-12-24T13:51:20.231Z,3.08
2022-12-24T13:53:48.756Z,2.95
2022-12-24T13:56:18.020Z,2.22
2022-12-24T13:58:48.724Z,3.00
2022-12-24T14:01:19.836Z,2.78
2022-12-24T14:03:53.290Z,4.65
2022-12-24T14:06:24.562Z,4.05
2022-12-24T14:08:55.524Z,4.53
2022-12-24T14:11:25.260Z,4.03
2022-12-24T14:13:53.628Z,4.47
2022-12-24T14:16:30.945Z,2.55
2022-12-24T14:19:21.239Z,3.80
2022-12-24T14:22:14.530Z,3.33
2022-12-24T14:24:56.839Z,3.92
2022-12-24T14:27:51.844Z,4.45
2022-12-24T14:30:20.050Z,3.40
2022-12-24T14:32:47.737Z,3.67
2022-12-24T14:35:18.664Z,3.00
2022-12-24T14:38:12.426Z,2.88
2022-12-24T14:40:51.103Z,2.72
2022-12-24T14:43:34.042Z,2.53
2022-12-24T14:46:21.985Z,3.15
2022-12-24T14:49:07.130Z,3.65
2022-12-24T14:51:54.598Z,2.70
2022-12-24T14:54:30.486Z,5.47
2022-12-24T14:57:14.198Z,4.30
2022-12-24T15:00:09.708Z,3.15
2022-12-24T15:02:50.242Z,4.03
2022-12-24T15:05:28.377Z,4.57
2022-12-24T15:08:01.139Z,2.92
2022-12-24T15:10:35.248Z,2.55
2022-12-24T15:13:05.571Z,2.72
2022-12-24T15:15:33.841Z,3.70
2022-12-24T15:18:01.964Z,2.97
2022-12-24T15:20:29.974Z,2.80
2022-12-24T15:22:58.486Z,2.53
2022-12-24T15:25:30.256Z,2.67
2022-12-24T15:27:56.925Z,4.00
2022-12-24T15:30:28.902Z,2.80
2022-12-24T15:32:57.544Z,2.55
2022-12-24T15:35:34.701Z,3.85
2022-12-24T15:38:03.868Z,3.08
2022-12-24T15:40:33.133Z,2.90
2022-12-24T15:42:59.960Z,2.97
2022-12-24T15:45:39.392Z,2.40
2022-12-24T15:48:11.125Z,2.75
2022-12-24T15:50:44.456Z,2.65
2022-12-24T15:53:19.812Z,2.95
2022-12-24T15:56:13.641Z,3.38
2022-12-24T15:58:42.637Z,3.17
2022-12-24T16:01:09.372Z,3.42
2022-12-24T16:03:39.198Z,3.63
2022-12-24T16:06:08.706Z,3.03
2022-12-24T16:08:39.997Z,3.15
2022-12-24T16:11:13.688Z,2.85
2022-12-24T16:13:54.113Z,2.85
2022-12-24T16:16:30.301Z,2.00
2022-12-24T16:19:01.162Z,2.67
2022-12-24T16:21:40.097Z,2.38
2022-12-24T16:24:30.562Z,1.85
2022-12-24T16:26:57.874Z,2.33
2022-12-24T16:29:24.497Z,1.60
2022-12-24T16:31:56.625Z,2.50
2022-12-24T16:34:31.834Z,2.05
2022-12-24T16:36:59.834Z,2.15
2022-12-24T16:39:31.957Z,2.15
2022-12-24T16:42:18.713Z,4.25
2022-12-24T16:44:46.239Z,3.03
2022-12-24T16:47:19.559Z,2.05
2022-12-24T16:49:46.151Z,1.90
2022-12-24T16:52:22.473Z,1.60
2022-12-24T16:54:50.104Z,1.02
2022-12-24T16:57:17.193Z,1.88
2022-12-24T16:59:43.807Z,1.90
2022-12-24T17:02:15.060Z,1.75
2022-12-24T17:04:42.761Z,2.15
2022-12-24T17:07:14.998Z,1.95
2022-12-24T17:09:41.667Z,2.13
2022-12-24T17:12:08.792Z,1.83
2022-12-24T17:14:35.792Z,2.75
2022-12-24T17:17:02.591Z,2.50
2022-12-24T17:19:29.204Z,1.25
2022-12-24T17:21:55.785Z,1.08
2022-12-24T17:24:22.368Z,1.65
2022-12-24T17:26:48.980Z,2.50
2022-12-24T17:29:15.647Z,1.42
2022-12-24T17:31:42.872Z,2.22
2022-12-24T17:34:09.742Z,1.42
2022-12-24T17:36:36.327Z,1.98
2022-12-24T17:39:03.270Z,1.27
2022-12-24T17:41:29.822Z,2.55
2022-12-24T17:43:56.409Z,1.55
2022-12-24T17:46:23.738Z,1.55
2022-12-24T17:48:51.660Z,2.40
2022-12-24T17:51:23.190Z,1.88
2022-12-24T17:53:50.409Z,2.33
2022-12-24T17:56:17.849Z,1.70
2022-12-24T17:58:45.933Z,1.60
2022-12-24T18:01:24.323Z,1.83
2022-12-24T18:03:52.949Z,3.20
2022-12-24T18:06:20.850Z,1.42
2022-12-24T18:08:47.948Z,2.13
2022-12-24T18:11:18.199Z,3.10
2022-12-24T18:13:45.438Z,2.83
2022-12-24T18:16:19.660Z,2.53
2022-12-24T18:18:47.470Z,1.77
2022-12-24T18:21:15.132Z,2.45
2022-12-24T18:23:43.313Z,2.05
2022-12-24T18:26:10.938Z,2.38
2022-12-24T18:28:37.748Z,1.63
2022-12-24T18:31:07.380Z,1.33
2022-12-24T18:33:35.231Z,1.42
2022-12-24T18:36:02.087Z,1.20
2022-12-24T18:38:28.933Z,0.93
2022-12-24T18:40:55.766Z,2.42
2022-12-24T18:43:22.326Z,1.60
2022-12-24T18:45:49.083Z,1.98
2022-12-24T18:48:15.693Z,2.47
2022-12-24T18:50:42.955Z,1.30
2022-12-24T18:53:11.160Z,1.27
2022-12-24T18:55:38.127Z,1.85
2022-12-24T18:58:04.691Z,1.95
2022-12-24T19:00:31.350Z,1.05
2022-12-24T19:02:58.054Z,1.50
2022-12-24T19:05:24.854Z,2.53
2022-12-24T19:07:51.551Z,2.28
2022-12-24T19:10:18.211Z,1.58
2022-12-24T19:12:44.757Z,4.18
2022-12-24T19:15:11.460Z,1.83
2022-12-24T19:17:38.185Z,1.38
2022-12-24T19:20:05.708Z,2.42
2022-12-24T19:22:32.333Z,2.47
2022-12-24T19:24:58.953Z,2.10
2022-12-24T19:27:25.549Z,1.23
2022-12-24T19:29:52.233Z,1.00
2022-12-24T19:32:19.025Z,1.95
2022-12-24T19:34:45.553Z,1.98
2022-12-24T19:37:12.363Z,2.22
2022-12-24T19:39:38.930Z,1.77
2022-12-24T19:42:05.788Z,2.42
2022-12-24T19:44:32.373Z,2.55
2022-12-24T19:46:59.153Z,1.77
2022-12-24T19:49:25.805Z,2.72
2022-12-24T19:51:54.658Z,2.33
2022-12-24T19:54:21.285Z,1.65
2022-12-24T19:56:47.969Z,2.25
2022-12-24T19:59:14.535Z,1.58
2022-12-24T20:01:41.320Z,2.80
2022-12-24T20:04:08.016Z,1.55
2022-12-24T20:06:35.870Z,1.52
2022-12-24T20:09:06.060Z,2.40
2022-12-24T20:11:33.322Z,1.20
2022-12-24T20:14:01.859Z,1.48
2022-12-24T20:16:32.037Z,1.40
2022-12-24T20:19:00.895Z,1.98
2022-12-24T20:21:28.347Z,1.38
2022-12-24T20:23:55.328Z,2.55
2022-12-24T20:26:25.239Z,1.42
2022-12-24T20:28:52.378Z,1.15
2022-12-24T20:31:30.153Z,2.42
2022-12-24T20:33:59.171Z,1.50
2022-12-24T20:36:27.105Z,1.83
2022-12-24T20:38:54.017Z,1.23
2022-12-24T20:41:23.259Z,1.77
2022-12-24T20:43:50.791Z,2.65
2022-12-24T20:46:19.955Z,1.95
2022-12-24T20:48:48.289Z,0.85
2022-12-24T20:51:24.616Z,1.30
2022-12-24T20:53:54.534Z,2.15
2022-12-24T20:56:25.321Z,1.73
2022-12-24T20:59:01.163Z,1.33
2022-12-24T21:01:28.671Z,1.52
2022-12-24T21:03:58.696Z,1.35
2022-12-24T21:06:25.567Z,0.77
2022-12-24T21:08:53.581Z,1.38
2022-12-24T21:11:40.780Z,1.38
2022-12-24T21:14:07.904Z,1.20
2022-12-24T21:16:36.025Z,2.17
2022-12-24T21:19:04.410Z,0.73
2022-12-24T21:21:31.536Z,0.57
2022-12-24T21:23:58.550Z,2.00
2022-12-24T21:26:25.204Z,1.90
2022-12-24T21:28:53.032Z,0.73
2022-12-24T21:31:20.009Z,1.02
2022-12-24T21:33:47.678Z,1.60
2022-12-24T21:36:16.459Z,2.00
2022-12-24T21:38:43.893Z,1.35
2022-12-24T21:41:13.629Z,1.17
2022-12-24T21:43:40.567Z,1.88
2022-12-24T21:46:09.278Z,1.58
2022-12-24T21:48:56.068Z,1.33
2022-12-24T21:51:23.724Z,1.35
2022-12-24T21:54:09.368Z,2.88
2022-12-24T21:56:56.156Z,0.98
2022-12-24T21:59:26.785Z,0.57
2022-12-24T22:01:54.875Z,1.25
2022-12-24T22:04:21.637Z,1.10
2022-12-24T22:07:07.150Z,1.52
2022-12-24T22:09:52.280Z,0.90
2022-12-24T22:12:20.056Z,1.15
2022-12-24T22:14:46.787Z,1.20
2022-12-24T22:17:13.814Z,1.48
2022-12-24T22:19:41.840Z,1.38
2022-12-24T22:22:08.571Z,1.73
2022-12-24T22:24:35.175Z,1.20
2022-12-24T22:27:02.828Z,2.08
2022-12-24T22:29:30.362Z,2.00
2022-12-24T22:31:58.132Z,1.92
2022-12-24T22:34:39.128Z,2.20
2022-12-24T22:37:21.851Z,1.13
2022-12-24T22:39:54.235Z,1.30
2022-12-24T22:42:25.438Z,1.55
2022-12-24T22:44:52.315Z,1.58
2022-12-24T22:47:19.102Z,1.85
2022-12-24T22:49:48.205Z,1.73
2022-12-24T22:52:15.124Z,1.65
2022-12-24T22:54:41.746Z,2.15
2022-12-24T22:57:08.439Z,1.60
2022-12-24T22:59:35.978Z,3.10
2022-12-24T23:02:05.571Z,1.70
2022-12-24T23:04:38.895Z,1.75
2022-12-24T23:07:08.050Z,2.38
2022-12-24T23:09:34.918Z,1.73
2022-12-24T23:12:04.109Z,2.85
2022-12-24T23:14:57.081Z,2.00
2022-12-24T23:17:23.654Z,2.55
2022-12-24T23:19:50.180Z,1.88
2022-12-24T23:22:16.819Z,2.38
2022-12-24T23:24:43.439Z,1.73
2022-12-24T23:27:10.201Z,1.77
2022-12-24T23:29:36.865Z,1.95
2022-12-24T23:32:03.528Z,1.77
2022-12-24T23:34:30.180Z,3.40
2022-12-24T23:36:56.768Z,2.60
2022-12-24T23:39:23.345Z,3.50
2022-12-24T23:41:50.110Z,1.60
2022-12-24T23:44:16.730Z,2.60
2022-12-24T23:46:43.351Z,2.95
2022-12-24T23:49:14.153Z,3.05
2022-12-24T23:51:40.787Z,2.40
2022-12-24T23:54:07.389Z,2.08
2022-12-24T23:56:33.975Z,2.63
2022-12-24T23:59:02.306Z,2.35
